Time;durP1;ratioP1;P1;durP2;ratioP2;P2;SDS_P1;SDS_P2;PMS_P1;PMS_P2;Temp;Humidity;BMP_temperature;BMP_pressure;BME280_temperature;BME280_humidity;BME280_pressure;Samples;Min_cycle;Max_cycle;Signal;HPM_P1;HPM_P2
2022/04/15 00:00:45;;;;;;;46.50;30.93;;;14.30;92.90;;;;;;5071064;28;20444;-69
2022/04/15 00:03:11;;;;;;;45.90;31.53;;;14.30;93.10;;;;;;5086769;28;20413;-71
2022/04/15 00:05:40;;;;;;;38.03;28.95;;;14.30;93.10;;;;;;5086341;28;20443;-69
2022/04/15 00:08:13;;;;;;;43.13;28.83;;;14.30;93.10;;;;;;5087520;28;20418;-71
2022/04/15 00:10:41;;;;;;;38.13;28.33;;;14.30;93.20;;;;;;5070835;28;21050;-69
2022/04/15 00:13:12;;;;;;;36.53;27.50;;;14.30;93.30;;;;;;5090579;28;20401;-73
2022/04/15 00:15:39;;;;;;;40.38;28.55;;;14.20;93.50;;;;;;5089270;28;20910;-72
2022/04/15 00:18:05;;;;;;;38.57;28.03;;;14.20;93.50;;;;;;5072110;28;20489;-72
2022/04/15 00:20:31;;;;;;;40.00;30.00;;;14.20;93.50;;;;;;5087860;28;20503;-72
2022/04/15 00:22:58;;;;;;;42.40;30.67;;;14.20;93.50;;;;;;5086055;28;20418;-73
2022/04/15 00:25:25;;;;;;;41.05;30.85;;;14.20;93.60;;;;;;5069380;28;20500;-72
2022/04/15 00:27:51;;;;;;;42.47;31.52;;;14.30;93.70;;;;;;5068088;28;20895;-72
2022/04/15 00:30:16;;;;;;;43.15;31.05;;;14.30;93.50;;;;;;5087957;28;20414;-71
2022/04/15 00:32:42;;;;;;;44.28;30.80;;;14.20;93.40;;;;;;5088105;28;20543;-69
2022/04/15 00:35:08;;;;;;;43.20;30.77;;;14.20;93.50;;;;;;5089263;28;20542;-70
2022/04/15 00:37:34;;;;;;;46.85;30.17;;;14.20;93.50;;;;;;5085718;28;20425;-71
2022/04/15 00:40:04;;;;;;;46.13;30.48;;;14.20;93.60;;;;;;5087516;28;20908;-74
2022/04/15 00:42:30;;;;;;;39.85;28.27;;;14.10;93.70;;;;;;5068797;28;20470;-72
2022/04/15 00:44:57;;;;;;;31.17;22.83;;;14.10;93.60;;;;;;5070027;28;20753;-70
2022/04/15 00:47:42;;;;;;;24.87;20.50;;;14.10;93.60;;;;;;5085844;28;20506;-71
2022/04/15 00:50:07;;;;;;;23.83;18.27;;;14.10;93.60;;;;;;5089279;28;20921;-73
2022/04/15 00:52:43;;;;;;;22.13;16.05;;;14.00;93.50;;;;;;5070351;28;20446;-70
2022/04/15 00:55:10;;;;;;;18.45;15.15;;;14.00;93.40;;;;;;5068041;28;20496;-71
2022/04/15 00:57:39;;;;;;;18.98;14.70;;;14.00;93.20;;;;;;5069154;28;20489;-72
2022/04/15 01:00:07;;;;;;;18.73;14.40;;;14.00;93.30;;;;;;5069069;28;20409;-71
2022/04/15 01:02:37;;;;;;;17.75;14.13;;;14.00;93.60;;;;;;5088518;28;20766;-71
2022/04/15 01:05:06;;;;;;;20.45;14.30;;;13.90;93.30;;;;;;5071873;28;20477;-70
2022/04/15 01:07:37;;;;;;;19.95;14.40;;;13.90;93.30;;;;;;5070022;28;20409;-71
2022/04/15 01:10:07;;;;;;;18.57;13.70;;;13.90;93.40;;;;;;5067636;28;20801;-70
2022/04/15 01:12:36;;;;;;;16.52;13.50;;;13.90;93.60;;;;;;5085549;28;20406;-71
2022/04/15 01:15:05;;;;;;;18.15;13.43;;;13.90;93.50;;;;;;5089343;28;20486;-71
2022/04/15 01:17:33;;;;;;;16.63;11.63;;;13.90;93.40;;;;;;5069323;28;20482;-70
2022/04/15 01:20:00;;;;;;;16.20;11.35;;;13.80;93.30;;;;;;5071380;28;20474;-70
2022/04/15 01:22:31;;;;;;;16.13;12.23;;;13.80;93.30;;;;;;5068152;28;20429;-73
2022/04/15 01:24:57;;;;;;;16.70;12.48;;;13.80;93.30;;;;;;5086553;28;20472;-70
2022/04/15 01:27:28;;;;;;;17.23;12.07;;;13.80;93.40;;;;;;5036397;28;20417;-71
2022/04/15 01:29:54;;;;;;;20.65;12.13;;;13.80;93.40;;;;;;5048427;28;20417;-71
2022/04/15 01:32:19;;;;;;;16.20;12.10;;;13.80;93.60;;;;;;5052131;28;20428;-71
2022/04/15 01:34:48;;;;;;;19.63;12.50;;;13.80;93.60;;;;;;5049050;28;20386;-72
2022/04/15 01:37:16;;;;;;;17.42;12.65;;;13.80;93.70;;;;;;5046428;28;20938;-71
2022/04/15 01:39:43;;;;;;;21.55;13.85;;;13.80;93.60;;;;;;5044758;28;20421;-72
2022/04/15 01:42:14;;;;;;;18.45;12.95;;;13.80;93.60;;;;;;5046039;28;20428;-72
2022/04/15 01:44:40;;;;;;;20.27;14.13;;;13.80;93.50;;;;;;5048792;28;20785;-71
2022/04/15 01:47:06;;;;;;;24.88;15.88;;;13.80;93.60;;;;;;5041729;28;20468;-74
2022/04/15 01:49:32;;;;;;;23.92;15.05;;;13.80;93.60;;;;;;5054099;28;20405;-72
2022/04/15 01:51:58;;;;;;;25.70;17.23;;;13.80;93.70;;;;;;5046659;28;20427;-70
2022/04/15 01:54:23;;;;;;;27.23;17.25;;;13.80;93.80;;;;;;5044350;28;20452;-72
2022/04/15 01:56:49;;;;;;;26.27;18.00;;;13.70;93.90;;;;;;5045862;28;20421;-71
2022/04/15 01:59:15;;;;;;;27.00;17.92;;;13.70;94.00;;;;;;5045314;28;20441;-72
2022/04/15 02:01:40;;;;;;;26.43;17.87;;;13.70;94.10;;;;;;5049153;28;20450;-75
2022/04/15 02:04:06;;;;;;;24.80;16.70;;;13.70;94.20;;;;;;5050586;28;20401;-73
2022/04/15 02:06:32;;;;;;;21.67;15.93;;;13.70;94.10;;;;;;5044539;28;20432;-74
2022/04/15 02:08:58;;;;;;;25.07;16.53;;;13.70;94.10;;;;;;5053073;28;20411;-71
2022/04/15 02:11:23;;;;;;;21.38;15.60;;;13.70;94.00;;;;;;5046511;28;20471;-74
2022/04/15 02:13:49;;;;;;;20.47;13.70;;;13.70;94.00;;;;;;5046896;28;20452;-72
2022/04/15 02:16:14;;;;;;;17.65;13.27;;;13.70;94.00;;;;;;5042338;28;20412;-71
2022/04/15 02:18:40;;;;;;;18.88;12.73;;;13.70;94.00;;;;;;5056484;28;20900;-71
2022/04/15 02:21:06;;;;;;;20.30;13.30;;;13.60;94.00;;;;;;5049017;28;20902;-72
2022/04/15 02:23:31;;;;;;;20.70;13.63;;;13.60;94.10;;;;;;5045361;28;20413;-73
2022/04/15 02:25:57;;;;;;;19.00;13.57;;;13.60;94.10;;;;;;5048254;28;20439;-72
2022/04/15 02:28:22;;;;;;;18.83;13.17;;;13.60;94.10;;;;;;5084960;28;20414;-73
2022/04/15 02:30:48;;;;;;;17.63;13.17;;;13.60;94.00;;;;;;5051345;28;20402;-72
2022/04/15 02:33:15;;;;;;;17.98;13.52;;;13.60;93.90;;;;;;5035210;28;20414;-71
2022/04/15 02:35:41;;;;;;;21.13;13.97;;;13.60;94.00;;;;;;5068191;28;20479;-73
2022/04/15 02:38:07;;;;;;;20.05;14.45;;;13.50;94.10;;;;;;5068271;28;20942;-72
2022/04/15 02:40:32;;;;;;;20.85;14.55;;;13.50;94.20;;;;;;5088139;28;20441;-71
2022/04/15 02:43:00;;;;;;;20.30;14.57;;;13.50;94.40;;;;;;5086030;28;20539;-69
2022/04/15 02:45:26;;;;;;;18.83;14.82;;;13.50;94.40;;;;;;5085053;28;20405;-70
2022/04/15 02:47:51;;;;;;;22.48;15.15;;;13.40;94.40;;;;;;5085410;28;20525;-71
2022/04/15 02:50:17;;;;;;;21.23;15.10;;;13.50;94.50;;;;;;5087184;28;20488;-70
2022/04/15 02:52:43;;;;;;;25.02;16.05;;;13.50;94.40;;;;;;5069043;28;20417;-70
2022/04/15 02:55:09;;;;;;;21.03;15.23;;;13.50;94.60;;;;;;5066299;28;20406;-71
2022/04/15 02:57:35;;;;;;;23.67;14.73;;;13.50;94.50;;;;;;5085273;28;20496;-69
2022/04/15 03:00:00;;;;;;;22.30;14.33;;;13.50;94.40;;;;;;5067789;28;20465;-70
2022/04/15 03:02:26;;;;;;;22.63;14.40;;;13.50;94.40;;;;;;5086016;28;20405;-69
2022/04/15 03:04:51;;;;;;;20.20;13.83;;;13.50;94.40;;;;;;5087111;28;20417;-72
2022/04/15 03:07:17;;;;;;;18.67;12.50;;;13.50;94.50;;;;;;5067456;28;20507;-72
2022/04/15 03:09:43;;;;;;;18.58;13.63;;;13.40;94.50;;;;;;5069554;28;20886;-72
2022/04/15 03:12:10;;;;;;;28.97;19.97;;;13.40;94.50;;;;;;5083258;28;20398;-70
2022/04/15 03:14:36;;;;;;;17.08;12.50;;;13.40;94.40;;;;;;5067999;28;20423;-71
2022/04/15 03:17:02;;;;;;;16.40;11.02;;;13.40;94.40;;;;;;5064185;28;20493;-71
2022/04/15 03:19:27;;;;;;;17.17;11.60;;;13.40;94.20;;;;;;5090808;28;20429;-72
2022/04/15 03:21:53;;;;;;;15.50;11.63;;;13.40;94.10;;;;;;5090122;28;21557;-71
2022/04/15 03:24:18;;;;;;;18.15;11.93;;;13.40;94.20;;;;;;5085497;28;20417;-72
2022/04/15 03:26:44;;;;;;;18.55;11.70;;;13.40;94.20;;;;;;5088461;28;20452;-71
2022/04/15 03:29:09;;;;;;;19.03;12.20;;;13.40;94.10;;;;;;5087383;28;20898;-69
2022/04/15 03:31:35;;;;;;;20.75;12.70;;;13.40;94.00;;;;;;5073066;28;20894;-69
2022/04/15 03:34:01;;;;;;;21.83;12.30;;;13.40;94.20;;;;;;5087261;28;20417;-72
2022/04/15 03:36:26;;;;;;;18.60;12.53;;;13.30;94.40;;;;;;5091237;28;20405;-69
2022/04/15 03:38:52;;;;;;;18.85;12.15;;;13.40;94.50;;;;;;5071158;28;20417;-72
2022/04/15 03:41:18;;;;;;;20.90;12.10;;;13.30;94.50;;;;;;5091720;28;20862;-70
2022/04/15 03:43:43;;;;;;;17.63;11.00;;;13.30;94.50;;;;;;5087742;28;20422;-68
2022/04/15 03:46:09;;;;;;;16.85;11.38;;;13.30;94.40;;;;;;5089899;28;20401;-72
2022/04/15 03:48:35;;;;;;;17.40;11.43;;;13.40;94.40;;;;;;5089779;28;20506;-72
2022/04/15 03:51:00;;;;;;;14.20;10.50;;;13.40;94.20;;;;;;5089592;28;20449;-73
2022/04/15 03:53:26;;;;;;;18.77;10.23;;;13.40;94.00;;;;;;5088035;28;20410;-70
2022/04/15 03:55:52;;;;;;;17.93;9.97;;;13.40;94.00;;;;;;5072909;28;20405;-72
2022/04/15 03:58:18;;;;;;;16.73;9.40;;;13.40;94.10;;;;;;5066665;28;20439;-67
2022/04/15 04:00:44;;;;;;;13.32;8.50;;;13.40;93.90;;;;;;5083226;28;20417;-71
2022/04/15 04:03:10;;;;;;;12.57;8.38;;;13.40;93.70;;;;;;5070838;28;20471;-72
2022/04/15 04:05:36;;;;;;;14.23;8.17;;;13.40;93.50;;;;;;5088538;28;20421;-69
2022/04/15 04:08:02;;;;;;;14.32;8.60;;;13.30;93.50;;;;;;5085083;28;20413;-68
2022/04/15 04:10:27;;;;;;;13.50;8.53;;;13.30;93.40;;;;;;5084831;28;20433;-69
2022/04/15 04:12:53;;;;;;;13.35;7.80;;;13.30;93.50;;;;;;5062760;28;20409;-69
2022/04/15 04:15:19;;;;;;;11.87;7.67;;;13.30;93.20;;;;;;5087441;28;20402;-71
2022/04/15 04:17:46;;;;;;;11.37;7.73;;;13.20;92.90;;;;;;5064597;28;20918;-70
2022/04/15 04:20:16;;;;;;;12.30;7.93;;;13.20;92.70;;;;;;5084583;28;20418;-69
2022/04/15 04:22:42;;;;;;;12.70;7.50;;;13.10;92.70;;;;;;5052068;28;20405;-69
2022/04/15 04:25:09;;;;;;;12.95;7.75;;;13.00;92.70;;;;;;5071184;28;20459;-70
2022/04/15 04:27:40;;;;;;;13.40;8.00;;;13.00;92.90;;;;;;5086682;28;20460;-69
2022/04/15 04:30:08;;;;;;;14.68;8.05;;;13.00;92.90;;;;;;5088652;28;20405;-70
2022/04/15 04:32:34;;;;;;;12.23;7.55;;;12.90;92.90;;;;;;5088054;28;20416;-70
2022/04/15 04:35:00;;;;;;;11.48;7.97;;;12.90;93.10;;;;;;5069771;28;20409;-70
2022/04/15 04:37:26;;;;;;;14.25;8.00;;;12.90;93.00;;;;;;5068756;28;20402;-69
2022/04/15 04:39:51;;;;;;;13.10;7.93;;;12.90;93.10;;;;;;5049194;28;20935;-70
2022/04/15 04:42:19;;;;;;;15.65;8.40;;;12.90;93.10;;;;;;5083887;28;20811;-70
2022/04/15 04:44:45;;;;;;;13.82;8.40;;;12.90;93.20;;;;;;5060774;28;20416;-71
2022/04/15 04:47:12;;;;;;;12.95;8.98;;;12.80;93.20;;;;;;5069727;28;20484;-69
2022/04/15 04:49:38;;;;;;;17.25;9.45;;;12.80;93.30;;;;;;5064181;28;20421;-70
2022/04/15 04:52:05;;;;;;;14.07;8.88;;;12.80;93.40;;;;;;5081846;28;20413;-71
2022/04/15 04:54:31;;;;;;;15.80;8.80;;;12.70;93.60;;;;;;5076330;28;20423;-70
2022/04/15 04:56:58;;;;;;;17.25;9.27;;;12.70;94.00;;;;;;5085484;28;20401;-71
2022/04/15 04:59:29;;;;;;;15.50;9.07;;;12.70;93.70;;;;;;5082701;28;20475;-70
2022/04/15 05:01:54;;;;;;;14.27;8.70;;;12.60;93.70;;;;;;5087544;28;20402;-73
2022/04/15 05:04:20;;;;;;;16.27;8.80;;;12.60;93.80;;;;;;5065256;28;20874;-72
2022/04/15 05:06:46;;;;;;;12.73;8.87;;;12.60;93.80;;;;;;5087324;28;20405;-74
2022/04/15 05:09:12;;;;;;;13.88;8.20;;;12.60;94.20;;;;;;5068400;28;20444;-73
2022/04/15 05:11:37;;;;;;;12.60;8.30;;;12.60;94.00;;;;;;5085874;28;20414;-72
2022/04/15 05:14:03;;;;;;;13.17;7.87;;;12.60;94.00;;;;;;5068154;28;20419;-71
2022/04/15 05:16:29;;;;;;;13.48;7.93;;;12.60;94.00;;;;;;5036285;28;20465;-73
2022/04/15 05:18:54;;;;;;;16.20;8.48;;;12.50;94.00;;;;;;5086926;28;20429;-72
2022/04/15 05:21:20;;;;;;;13.97;8.80;;;12.50;94.00;;;;;;5069844;28;20479;-71
2022/04/15 05:23:46;;;;;;;15.02;8.40;;;12.50;94.00;;;;;;5086826;28;20467;-71
2022/04/15 05:26:12;;;;;;;13.13;7.70;;;12.50;94.10;;;;;;5051906;28;20421;-74
2022/04/15 05:28:38;;;;;;;13.25;8.48;;;12.50;94.20;;;;;;5082681;28;20417;-73
2022/04/15 05:31:04;;;;;;;15.45;7.65;;;12.40;94.30;;;;;;5069922;28;20402;-70
2022/04/15 05:33:30;;;;;;;15.70;7.82;;;12.50;94.60;;;;;;5084223;28;21027;-71
2022/04/15 05:35:57;;;;;;;13.05;7.70;;;12.50;94.10;;;;;;5083990;28;20421;-72
2022/04/15 05:38:23;;;;;;;13.15;7.90;;;12.50;94.20;;;;;;5083877;28;20550;-71
2022/04/15 05:40:48;;;;;;;17.15;8.40;;;12.50;94.20;;;;;;5067559;28;20428;-70
2022/04/15 05:43:15;;;;;;;12.40;7.80;;;12.50;94.40;;;;;;5069660;28;20414;-71
2022/04/15 05:45:41;;;;;;;14.73;7.10;;;12.50;94.20;;;;;;5069060;28;20413;-73
2022/04/15 05:48:07;;;;;;;16.17;7.70;;;12.50;94.00;;;;;;5069558;28;20940;-71
2022/04/15 05:50:32;;;;;;;13.37;7.20;;;12.50;93.90;;;;;;5083519;28;20771;-73
2022/04/15 05:52:58;;;;;;;13.95;7.40;;;12.50;93.90;;;;;;5068555;28;20433;-72
2022/04/15 05:55:24;;;;;;;14.17;8.03;;;12.50;93.90;;;;;;5084159;28;20425;-74
2022/04/15 05:57:49;;;;;;;17.00;7.63;;;12.50;94.00;;;;;;5086514;28;20478;-70
2022/04/15 06:00:16;;;;;;;14.33;7.70;;;12.50;94.00;;;;;;5065677;28;20410;-72
2022/04/15 06:02:42;;;;;;;12.67;6.90;;;12.60;94.10;;;;;;5068626;28;20422;-73
2022/04/15 06:05:08;;;;;;;12.88;7.03;;;12.60;94.00;;;;;;5085532;28;20424;-74
2022/04/15 06:07:34;;;;;;;13.40;7.47;;;12.60;93.90;;;;;;5084439;28;20422;-72
2022/04/15 06:10:00;;;;;;;14.68;7.65;;;12.60;93.70;;;;;;5080241;28;20506;-71
2022/04/15 06:12:54;;;;;;;14.88;7.80;;;12.60;93.70;;;;;;5085414;28;20982;-71
2022/04/15 06:15:24;;;;;;;14.13;7.40;;;12.60;93.60;;;;;;5084059;28;20405;-70
2022/04/15 06:17:50;;;;;;;13.07;7.97;;;12.60;93.70;;;;;;5085719;28;20417;-74
2022/04/15 06:20:17;;;;;;;14.35;7.93;;;12.60;93.40;;;;;;5082992;28;20410;-73
2022/04/15 06:22:44;;;;;;;14.63;7.63;;;12.70;93.40;;;;;;5068494;28;20401;-70
2022/04/15 06:25:10;;;;;;;15.82;7.80;;;12.70;93.30;;;;;;5085461;28;20405;-74
2022/04/15 06:27:36;;;;;;;13.23;7.82;;;12.70;93.30;;;;;;5085969;28;20417;-71
2022/04/15 06:30:03;;;;;;;11.77;7.70;;;12.70;93.30;;;;;;5066790;28;20422;-69
2022/04/15 06:32:29;;;;;;;12.20;7.60;;;12.70;93.30;;;;;;5083661;28;20910;-70
2022/04/15 06:34:54;;;;;;;12.98;7.85;;;12.70;93.20;;;;;;5084390;28;20413;-71
2022/04/15 06:37:20;;;;;;;10.95;7.35;;;12.70;93.20;;;;;;5067863;28;20502;-70
2022/04/15 06:39:50;;;;;;;11.03;7.67;;;12.70;93.20;;;;;;5050106;28;20470;-69
2022/04/15 06:42:21;;;;;;;14.40;7.88;;;12.70;93.20;;;;;;5067180;28;20408;-71
2022/04/15 06:44:47;;;;;;;14.25;7.50;;;12.70;93.20;;;;;;5084275;28;20428;-70
2022/04/15 06:47:13;;;;;;;11.85;7.22;;;12.70;93.10;;;;;;5086065;28;20417;-70
2022/04/15 06:49:38;;;;;;;13.17;8.27;;;12.80;93.10;;;;;;5081320;28;20487;-72
2022/04/15 06:52:04;;;;;;;14.43;8.57;;;12.80;93.00;;;;;;5085688;28;20429;-71
2022/04/15 06:54:30;;;;;;;11.82;7.93;;;12.90;93.00;;;;;;5067472;28;20428;-70
2022/04/15 06:56:55;;;;;;;9.03;6.43;;;12.90;93.10;;;;;;5067841;28;20397;-77
2022/04/15 06:59:21;;;;;;;9.98;6.40;;;13.00;93.00;;;;;;5082225;28;20413;-67
2022/04/15 07:01:47;;;;;;;11.70;6.93;;;13.00;92.40;;;;;;5084898;28;20402;-71
2022/04/15 07:04:13;;;;;;;10.85;6.70;;;13.20;92.60;;;;;;5065436;28;20446;-71
2022/04/15 07:06:39;;;;;;;10.55;6.78;;;13.20;91.90;;;;;;5068958;28;20830;-71
2022/04/15 07:09:04;;;;;;;11.43;6.55;;;13.30;91.50;;;;;;5080758;28;20479;-71
2022/04/15 07:11:30;;;;;;;10.13;6.83;;;13.30;91.00;;;;;;5084429;28;20444;-73
2022/04/15 07:13:55;;;;;;;13.18;7.40;;;13.30;90.90;;;;;;5080288;28;21120;-71
2022/04/15 07:16:21;;;;;;;10.20;7.47;;;13.30;90.70;;;;;;5074967;28;20890;-71
2022/04/15 07:18:47;;;;;;;10.23;6.87;;;13.40;90.60;;;;;;5084866;28;20463;-72
2022/04/15 07:21:12;;;;;;;10.38;7.40;;;13.40;90.50;;;;;;5066770;28;20406;-73
2022/04/15 07:23:38;;;;;;;10.13;7.20;;;13.50;90.20;;;;;;5065332;28;20398;-73
2022/04/15 07:26:04;;;;;;;9.63;6.53;;;13.60;90.00;;;;;;5083513;28;20455;-72
2022/04/15 07:28:29;;;;;;;9.75;6.20;;;13.60;89.70;;;;;;5080931;28;20952;-76
2022/04/15 07:30:55;;;;;;;7.63;5.23;;;13.70;89.20;;;;;;5083407;28;20811;-74
2022/04/15 07:33:21;;;;;;;10.47;5.00;;;13.80;89.70;;;;;;5085085;28;20783;-66
2022/04/15 07:35:46;;;;;;;9.05;4.65;;;13.80;89.00;;;;;;5049424;28;20428;-76
2022/04/15 07:38:12;;;;;;;8.07;4.93;;;13.80;88.60;;;;;;5083519;28;20512;-73
2022/04/15 07:40:38;;;;;;;9.52;5.38;;;13.80;88.80;;;;;;5084153;28;20402;-73
2022/04/15 07:43:03;;;;;;;8.85;5.88;;;13.90;88.50;;;;;;5068942;28;20490;-73
2022/04/15 07:45:29;;;;;;;8.87;5.90;;;13.90;88.20;;;;;;5049128;28;20453;-74
2022/04/15 07:47:55;;;;;;;8.70;5.22;;;14.10;87.40;;;;;;5067644;28;20405;-76
2022/04/15 07:50:23;;;;;;;7.60;5.20;;;14.20;87.80;;;;;;5066299;28;20444;-73
2022/04/15 07:52:50;;;;;;;7.28;5.22;;;14.20;87.00;;;;;;5067922;28;20820;-75
2022/04/15 07:55:16;;;;;;;9.82;4.90;;;14.30;86.90;;;;;;5068096;28;20771;-75
2022/04/15 07:57:45;;;;;;;8.73;4.40;;;14.40;86.90;;;;;;5085258;28;20409;-74
2022/04/15 08:00:11;;;;;;;8.80;5.18;;;14.50;85.90;;;;;;5063704;28;20405;-74
2022/04/15 08:02:39;;;;;;;7.30;4.82;;;14.60;84.80;;;;;;5084546;28;20941;-75
2022/04/15 08:05:05;;;;;;;6.25;4.55;;;14.70;84.50;;;;;;5084296;28;20406;-74
2022/04/15 08:07:31;;;;;;;7.00;4.73;;;14.80;83.80;;;;;;5087883;28;22034;-68
2022/04/15 08:09:56;;;;;;;5.72;4.28;;;14.90;83.70;;;;;;5055248;28;20427;-73
2022/04/15 08:12:22;;;;;;;8.18;4.80;;;15.00;83.80;;;;;;5071807;28;20566;-69
2022/04/15 08:14:47;;;;;;;9.23;4.87;;;15.10;83.50;;;;;;5072710;28;20413;-68
2022/04/15 08:17:13;;;;;;;7.33;4.67;;;15.10;82.20;;;;;;5090210;28;20509;-69
2022/04/15 08:19:39;;;;;;;5.85;3.95;;;15.20;83.10;;;;;;5087832;28;20460;-70
2022/04/15 08:22:09;;;;;;;7.60;4.60;;;15.20;82.50;;;;;;5088112;28;21777;-69
2022/04/15 08:24:42;;;;;;;6.18;3.90;;;15.30;82.50;;;;;;5089001;28;20759;-69
2022/04/15 08:27:11;;;;;;;5.07;3.70;;;15.50;82.20;;;;;;5069867;28;20868;-71
2022/04/15 08:29:39;;;;;;;5.05;3.33;;;15.70;81.50;;;;;;5085816;28;20413;-69
2022/04/15 08:32:11;;;;;;;5.00;3.42;;;16.10;79.50;;;;;;5071641;28;20414;-69
2022/04/15 08:34:36;;;;;;;5.63;3.60;;;16.40;78.10;;;;;;5069371;28;20422;-69
2022/04/15 08:37:02;;;;;;;5.30;3.40;;;16.60;76.40;;;;;;5072296;28;20914;-67
2022/04/15 08:39:28;;;;;;;6.70;3.43;;;17.00;75.90;;;;;;5052191;28;20427;-67
2022/04/15 08:41:55;;;;;;;4.88;3.05;;;17.50;72.40;;;;;;5052588;28;20464;-68
2022/04/15 08:44:22;;;;;;;4.28;2.95;;;17.80;71.00;;;;;;5069891;28;20411;-67
2022/04/15 08:46:49;;;;;;;4.90;2.80;;;18.20;69.00;;;;;;5088493;28;20433;-69
2022/04/15 08:49:19;;;;;;;4.05;2.60;;;19.00;68.10;;;;;;5070178;28;20407;-68
2022/04/15 08:51:47;;;;;;;4.88;3.05;;;20.00;63.30;;;;;;5069916;28;20757;-68
2022/04/15 08:54:13;;;;;;;5.72;2.75;;;21.00;58.80;;;;;;5065031;28;20497;-69
2022/04/15 08:56:39;;;;;;;5.22;2.85;;;22.30;54.40;;;;;;5089825;28;20401;-67
2022/04/15 08:59:05;;;;;;;3.97;2.97;;;23.40;50.80;;;;;;5068064;28;20425;-67
2022/04/15 09:01:30;;;;;;;;;;;24.40;48.70;;;;;;5069375;28;20528;-69
2022/04/15 09:04:00;;;;;;;3.58;2.55;;;24.90;45.80;;;;;;5087761;28;20467;-69
2022/04/15 09:06:31;;;;;;;4.85;3.05;;;24.70;45.20;;;;;;5086284;28;20425;-68
2022/04/15 09:09:08;;;;;;;5.90;3.28;;;24.10;45.60;;;;;;5071041;28;20421;-70
2022/04/15 09:11:38;;;;;;;6.10;3.53;;;23.40;47.20;;;;;;5088451;28;20886;-69
2022/04/15 09:14:10;;;;;;;5.70;3.80;;;23.50;47.70;;;;;;5087277;28;20433;-72
2022/04/15 09:16:46;;;;;;;6.00;3.80;;;23.70;46.70;;;;;;5086526;28;20507;-71
2022/04/15 09:19:12;;;;;;;6.13;3.50;;;23.80;46.60;;;;;;5086794;28;20909;-68
2022/04/15 09:21:41;;;;;;;5.00;3.15;;;24.10;45.50;;;;;;5089513;28;20432;-70
2022/04/15 09:24:07;;;;;;;6.65;3.20;;;24.70;44.80;;;;;;5061842;28;20518;-71
2022/04/15 09:26:35;;;;;;;3.67;2.97;;;25.20;43.10;;;;;;5063684;28;20438;-69
2022/04/15 09:29:01;;;;;;;5.78;3.70;;;25.80;41.70;;;;;;5064797;28;20453;-68
2022/04/15 09:31:27;;;;;;;4.80;3.30;;;26.40;40.80;;;;;;5065466;28;20984;-68
2022/04/15 09:33:54;;;;;;;4.07;3.23;;;26.80;39.30;;;;;;5066720;28;20464;-68
2022/04/15 09:36:31;;;;;;;5.72;3.65;;;26.80;41.50;;;;;;5066359;28;20473;-70
2022/04/15 09:39:02;;;;;;;5.28;3.50;;;27.00;39.30;;;;;;5064841;28;20418;-72
2022/04/15 09:41:29;;;;;;;5.22;3.58;;;26.80;39.10;;;;;;5050334;28;20445;-70
2022/04/15 09:43:58;;;;;;;6.60;3.90;;;26.40;39.90;;;;;;5063965;28;20412;-70
2022/04/15 09:46:23;;;;;;;7.00;4.17;;;25.90;40.20;;;;;;5067233;28;20430;-69
2022/04/15 09:49:07;;;;;;;4.68;3.70;;;25.40;41.50;;;;;;5067093;28;20391;-70
2022/04/15 09:51:37;;;;;;;6.20;4.23;;;25.30;42.30;;;;;;5064722;28;20415;-71
2022/04/15 09:54:05;;;;;;;4.10;3.42;;;25.30;41.60;;;;;;5062610;28;20441;-71
2022/04/15 09:56:33;;;;;;;4.97;3.70;;;24.90;43.00;;;;;;5066785;28;20487;-71
2022/04/15 09:59:04;;;;;;;5.63;3.53;;;24.40;43.10;;;;;;5057806;28;20419;-75
2022/04/15 10:01:32;;;;;;;6.37;4.00;;;24.10;44.30;;;;;;5065355;28;20473;-69
2022/04/15 10:03:58;;;;;;;7.13;3.70;;;24.10;43.20;;;;;;5065797;28;20533;-72
2022/04/15 10:06:25;;;;;;;4.50;3.20;;;23.30;45.10;;;;;;5050864;28;20215;-71
2022/04/15 10:08:52;;;;;;;4.75;3.47;;;22.70;46.70;;;;;;5064663;28;20439;-69
2022/04/15 10:11:18;;;;;;;5.73;3.67;;;23.00;45.70;;;;;;5067370;28;20415;-70
2022/04/15 10:13:45;;;;;;;5.85;3.22;;;23.00;45.90;;;;;;5065123;28;20411;-72
2022/04/15 10:16:12;;;;;;;5.50;3.20;;;23.40;45.50;;;;;;5065612;28;20417;-75
2022/04/15 10:18:40;;;;;;;5.88;3.00;;;24.40;43.80;;;;;;5061534;28;20423;-70
2022/04/15 10:21:07;;;;;;;;;;;26.00;41.60;;;;;;5068165;28;20426;-70
2022/04/15 10:23:33;;;;;;;;;;;27.90;37.50;;;;;;5067327;28;20296;-68
2022/04/15 10:26:01;;;;;;;;;;;29.50;34.70;;;;;;5069077;28;19940;-71
2022/04/15 10:28:40;;;;;;;;;;;30.50;32.80;;;;;;5070240;28;19919;-69
2022/04/15 10:31:05;;;;;;;;;;;30.70;31.50;;;;;;5052372;28;19948;-71
2022/04/15 10:33:32;;;;;;;;;;;31.40;31.20;;;;;;5063073;28;19954;-72
2022/04/15 10:36:12;;;;;;;5.18;2.60;;;32.40;29.90;;;;;;5069696;28;20398;-72
2022/04/15 10:39:06;;;;;;;4.60;2.30;;;33.30;29.10;;;;;;5088205;28;20449;-70
2022/04/15 10:41:40;;;;;;;;;;;33.60;27.80;;;;;;5069565;28;19912;-72
2022/04/15 10:44:06;;;;;;;;;;;33.60;28.20;;;;;;5067467;28;19908;-72
2022/04/15 10:46:35;;;;;;;5.07;2.60;;;34.20;27.40;;;;;;5069207;28;19911;-72
2022/04/15 10:49:18;;;;;;;6.15;2.70;;;34.10;27.30;;;;;;5083722;28;20414;-70
2022/04/15 10:51:43;;;;;;;5.60;2.80;;;33.50;27.80;;;;;;5053148;28;20475;-72
2022/04/15 10:54:41;;;;;;;6.07;2.93;;;33.40;27.80;;;;;;5065305;28;20411;-68
2022/04/15 10:57:14;;;;;;;4.90;3.38;;;33.30;27.90;;;;;;5087407;28;20462;-72
2022/04/15 11:02:38;;;;;;;;;;;34.00;27.00;;;;;;5086098;28;20413;-72
2022/04/15 11:05:05;;;;;;;5.20;2.90;;;34.80;26.50;;;;;;5083822;28;19918;-73
2022/04/15 11:07:51;;;;;;;;;;;35.60;26.00;;;;;;5088150;28;20413;-72
2022/04/15 11:10:18;;;;;;;;;;;36.30;25.50;;;;;;5069267;28;19918;-70
2022/04/15 11:12:44;;;;;;;;;;;36.90;24.90;;;;;;5089502;28;19916;-71
2022/04/15 11:15:10;;;;;;;;;;;37.10;24.40;;;;;;5084040;28;19912;-70
2022/04/15 11:17:38;;;;;;;;;;;37.30;24.00;;;;;;5089725;28;19908;-71
2022/04/15 11:20:05;;;;;;;;;;;37.50;23.90;;;;;;5085968;28;19966;-73
2022/04/15 11:22:31;;;;;;;;;;;37.70;23.70;;;;;;5085453;28;19920;-69
2022/04/15 11:24:56;;;;;;;;;;;37.70;23.50;;;;;;5087569;28;19919;-70
2022/04/15 11:27:22;;;;;;;;;;;37.10;24.30;;;;;;5070494;28;20393;-70
2022/04/15 11:29:48;;;;;;;;;;;36.50;25.10;;;;;;5086214;28;19912;-70
2022/04/15 11:32:14;;;;;;;;;;;36.50;25.10;;;;;;5088872;28;19976;-73
2022/04/15 11:34:41;;;;;;;;;;;36.50;25.10;;;;;;5088378;28;20365;-70
2022/04/15 11:37:09;;;;;;;;;;;36.60;25.00;;;;;;5069932;28;20396;-72
2022/04/15 11:39:37;;;;;;;;;;;36.30;24.70;;;;;;5089319;28;20385;-72
2022/04/15 11:42:08;;;;;;;;;;;35.50;25.10;;;;;;5074522;28;19918;-69
2022/04/15 11:44:34;;;;;;;;;;;35.30;25.40;;;;;;5089390;28;20349;-72
2022/04/15 11:49:44;;;;;;;;;;;35.50;25.50;;;;;;5089705;28;19912;-72
2022/04/15 11:52:09;;;;;;;;;;;35.60;25.70;;;;;;5058001;28;20429;-72
2022/04/15 11:54:38;;;;;;;;;;;35.60;25.30;;;;;;5055753;28;19912;-71
2022/04/15 11:57:04;;;;;;;;;;;35.60;25.10;;;;;;5092289;28;19908;-73
2022/04/15 11:59:37;;;;;;;;;;;35.60;25.30;;;;;;5090398;28;19951;-71
2022/04/15 12:02:02;;;;;;;;;;;35.70;25.40;;;;;;5056247;28;19924;-73
2022/04/15 12:04:28;;;;;;;;;;;35.80;25.40;;;;;;5071918;28;19908;-74
2022/04/15 12:06:53;;;;;;;;;;;35.90;25.30;;;;;;5073338;28;19912;-75
2022/04/15 12:09:19;;;;;;;;;;;35.80;25.00;;;;;;5089006;28;19912;-71
2022/04/15 12:11:44;;;;;;;;;;;35.70;25.40;;;;;;5074337;28;19917;-72
2022/04/15 12:14:10;;;;;;;;;;;35.50;25.90;;;;;;5091120;28;19924;-74
2022/04/15 12:16:38;;;;;;;;;;;35.00;26.20;;;;;;5089251;28;19986;-72
2022/04/15 12:19:04;;;;;;;;;;;34.40;26.70;;;;;;5090106;28;19912;-72
2022/04/15 12:21:30;;;;;;;;;;;33.70;27.40;;;;;;5089340;28;19912;-74
2022/04/15 12:24:19;;;;;;;;;;;33.30;27.60;;;;;;5087291;28;19951;-71
2022/04/15 12:26:46;;;;;;;;;;;33.20;28.10;;;;;;5079538;28;19916;-69
2022/04/15 12:32:29;;;;;;;7.10;4.45;;;32.30;28.60;;;;;;5069235;28;20487;-72
2022/04/15 12:34:54;;;;;;;6.15;4.70;;;31.50;29.40;;;;;;5070460;28;20421;-70
2022/04/15 12:37:39;;;;;;;;;;;31.00;30.00;;;;;;5089123;28;20406;-72
2022/04/15 12:40:09;;;;;;;;;;;31.00;30.00;;;;;;5070474;28;19912;-68
2022/04/15 12:42:36;;;;;;;;;;;31.30;30.00;;;;;;5091070;28;19908;-69
2022/04/15 12:45:05;;;;;;;;;;;31.90;29.20;;;;;;5072844;28;19911;-69
2022/04/15 12:47:31;;;;;;;;;;;32.20;29.00;;;;;;5091085;28;19908;-68
2022/04/15 12:50:15;;;;;;;;;;;32.40;29.00;;;;;;5070564;28;19912;-67
2022/04/15 12:52:41;;;;;;;;;;;32.60;28.20;;;;;;5090829;28;19915;-69
2022/04/15 12:55:07;;;;;;;;;;;32.30;28.60;;;;;;5068215;28;19947;-68
2022/04/15 12:57:40;;;;;;;;;;;32.30;29.00;;;;;;5071528;28;19951;-70
2022/04/15 13:00:07;;;;;;;;;;;32.40;28.50;;;;;;5071754;28;19940;-70